sensor_id;sensor_type;location;lat;lon;timestamp;temperature;humidity
9915;DHT22;4996;48.746;9.174;2022-07-06T00:00:42;20.10;93.10
9915;DHT22;4996;48.746;9.174;2022-07-06T00:03:07;20.10;93.30
9915;DHT22;4996;48.746;9.174;2022-07-06T00:05:33;20.20;93.30
9915;DHT22;4996;48.746;9.174;2022-07-06T00:07:58;20.00;93.50
9915;DHT22;4996;48.746;9.174;2022-07-06T00:10:24;20.10;93.80
9915;DHT22;4996;48.746;9.174;2022-07-06T00:12:49;20.10;93.90
9915;DHT22;4996;48.746;9.174;2022-07-06T00:15:15;20.00;94.50
9915;DHT22;4996;48.746;9.174;2022-07-06T00:17:40;19.80;94.40
9915;DHT22;4996;48.746;9.174;2022-07-06T00:20:06;19.80;94.70
9915;DHT22;4996;48.746;9.174;2022-07-06T00:22:32;19.90;94.80
9915;DHT22;4996;48.746;9.174;2022-07-06T00:24:57;19.90;95.00
9915;DHT22;4996;48.746;9.174;2022-07-06T00:27:23;19.80;95.00
9915;DHT22;4996;48.746;9.174;2022-07-06T00:29:48;19.70;95.40
9915;DHT22;4996;48.746;9.174;2022-07-06T00:32:14;19.90;95.50
9915;DHT22;4996;48.746;9.174;2022-07-06T00:34:39;19.90;96.00
9915;DHT22;4996;48.746;9.174;2022-07-06T00:37:06;19.80;95.80
9915;DHT22;4996;48.746;9.174;2022-07-06T00:39:32;19.80;96.20
9915;DHT22;4996;48.746;9.174;2022-07-06T00:41:58;19.80;96.20
9915;DHT22;4996;48.746;9.174;2022-07-06T00:44:23;19.80;96.30
9915;DHT22;4996;48.746;9.174;2022-07-06T00:46:49;19.80;96.30
9915;DHT22;4996;48.746;9.174;2022-07-06T00:49:15;19.90;96.50
9915;DHT22;4996;48.746;9.174;2022-07-06T00:52:00;19.90;96.50
9915;DHT22;4996;48.746;9.174;2022-07-06T00:54:27;19.90;96.50
9915;DHT22;4996;48.746;9.174;2022-07-06T00:56:55;20.00;96.50
9915;DHT22;4996;48.746;9.174;2022-07-06T00:59:20;19.80;97.10
9915;DHT22;4996;48.746;9.174;2022-07-06T01:01:47;19.80;97.30
9915;DHT22;4996;48.746;9.174;2022-07-06T01:04:12;19.80;97.40
9915;DHT22;4996;48.746;9.174;2022-07-06T01:06:38;19.90;97.40
9915;DHT22;4996;48.746;9.174;2022-07-06T01:09:04;19.80;97.40
9915;DHT22;4996;48.746;9.174;2022-07-06T01:11:30;19.80;97.50
9915;DHT22;4996;48.746;9.174;2022-07-06T01:13:56;19.80;97.60
9915;DHT22;4996;48.746;9.174;2022-07-06T01:16:22;19.80;97.60
9915;DHT22;4996;48.746;9.174;2022-07-06T01:18:48;19.90;97.90
9915;DHT22;4996;48.746;9.174;2022-07-06T01:21:14;19.80;97.80
9915;DHT22;4996;48.746;9.174;2022-07-06T01:23:45;19.80;97.90
9915;DHT22;4996;48.746;9.174;2022-07-06T01:26:13;19.70;98.00
9915;DHT22;4996;48.746;9.174;2022-07-06T01:28:40;19.60;98.20
9915;DHT22;4996;48.746;9.174;2022-07-06T01:31:05;19.60;98.50
9915;DHT22;4996;48.746;9.174;2022-07-06T01:33:31;19.50;98.60
9915;DHT22;4996;48.746;9.174;2022-07-06T01:35:57;19.60;98.70
9915;DHT22;4996;48.746;9.174;2022-07-06T01:38:22;19.50;98.90
9915;DHT22;4996;48.746;9.174;2022-07-06T01:40:48;19.30;99.20
9915;DHT22;4996;48.746;9.174;2022-07-06T01:43:13;19.40;99.30
9915;DHT22;4996;48.746;9.174;2022-07-06T01:45:39;19.30;99.40
9915;DHT22;4996;48.746;9.174;2022-07-06T01:48:08;19.20;99.40
9915;DHT22;4996;48.746;9.174;2022-07-06T01:50:33;19.20;99.60
9915;DHT22;4996;48.746;9.174;2022-07-06T01:53:00;19.00;99.90
9915;DHT22;4996;48.746;9.174;2022-07-06T01:55:25;19.00;99.90
9915;DHT22;4996;48.746;9.174;2022-07-06T01:57:51;18.90;99.90
9915;DHT22;4996;48.746;9.174;2022-07-06T02:00:16;19.00;99.90
9915;DHT22;4996;48.746;9.174;2022-07-06T02:02:42;18.90;99.90
9915;DHT22;4996;48.746;9.174;2022-07-06T02:05:07;18.80;99.90
9915;DHT22;4996;48.746;9.174;2022-07-06T02:07:33;18.80;99.90
9915;DHT22;4996;48.746;9.174;2022-07-06T02:09:58;18.80;99.90
9915;DHT22;4996;48.746;9.174;2022-07-06T02:12:24;18.80;99.90
9915;DHT22;4996;48.746;9.174;2022-07-06T02:14:50;18.80;99.90
9915;DHT22;4996;48.746;9.174;2022-07-06T02:17:15;18.70;99.90
9915;DHT22;4996;48.746;9.174;2022-07-06T02:22:08;18.60;99.90
9915;DHT22;4996;48.746;9.174;2022-07-06T02:24:34;18.60;99.90
9915;DHT22;4996;48.746;9.174;2022-07-06T02:26:59;18.60;99.90
9915;DHT22;4996;48.746;9.174;2022-07-06T02:29:25;18.50;99.90
9915;DHT22;4996;48.746;9.174;2022-07-06T02:31:51;18.60;99.90
9915;DHT22;4996;48.746;9.174;2022-07-06T02:34:16;18.60;99.90
9915;DHT22;4996;48.746;9.174;2022-07-06T02:36:42;18.60;99.90
9915;DHT22;4996;48.746;9.174;2022-07-06T02:39:08;18.60;99.90
9915;DHT22;4996;48.746;9.174;2022-07-06T02:41:33;18.60;99.90
9915;DHT22;4996;48.746;9.174;2022-07-06T02:43:59;18.60;99.90
9915;DHT22;4996;48.746;9.174;2022-07-06T02:46:24;18.60;99.90
9915;DHT22;4996;48.746;9.174;2022-07-06T02:48:50;18.60;99.90
9915;DHT22;4996;48.746;9.174;2022-07-06T02:51:15;18.40;99.90
9915;DHT22;4996;48.746;9.174;2022-07-06T02:53:41;18.20;99.90
9915;DHT22;4996;48.746;9.174;2022-07-06T02:56:06;18.20;99.90
9915;DHT22;4996;48.746;9.174;2022-07-06T02:58:32;18.30;99.90
9915;DHT22;4996;48.746;9.174;2022-07-06T03:00:57;18.20;99.90
9915;DHT22;4996;48.746;9.174;2022-07-06T03:03:23;18.30;99.90
9915;DHT22;4996;48.746;9.174;2022-07-06T03:05:48;18.20;99.90
9915;DHT22;4996;48.746;9.174;2022-07-06T03:08:14;18.20;99.90
9915;DHT22;4996;48.746;9.174;2022-07-06T03:10:39;18.10;99.90
9915;DHT22;4996;48.746;9.174;2022-07-06T03:13:05;18.10;99.90
9915;DHT22;4996;48.746;9.174;2022-07-06T03:15:30;18.10;99.90
9915;DHT22;4996;48.746;9.174;2022-07-06T03:17:56;18.10;99.90
9915;DHT22;4996;48.746;9.174;2022-07-06T03:20:21;18.10;99.90
9915;DHT22;4996;48.746;9.174;2022-07-06T03:22:47;18.00;99.90
9915;DHT22;4996;48.746;9.174;2022-07-06T03:25:12;18.00;99.90
9915;DHT22;4996;48.746;9.174;2022-07-06T03:27:38;17.90;99.90
9915;DHT22;4996;48.746;9.174;2022-07-06T03:30:04;17.90;99.90
9915;DHT22;4996;48.746;9.174;2022-07-06T03:32:29;17.90;99.90
9915;DHT22;4996;48.746;9.174;2022-07-06T03:34:57;17.80;99.90
9915;DHT22;4996;48.746;9.174;2022-07-06T03:37:22;17.70;99.90
9915;DHT22;4996;48.746;9.174;2022-07-06T03:39:48;17.70;99.90
9915;DHT22;4996;48.746;9.174;2022-07-06T03:42:13;17.80;99.90
9915;DHT22;4996;48.746;9.174;2022-07-06T03:44:39;17.80;99.90
9915;DHT22;4996;48.746;9.174;2022-07-06T03:47:04;17.70;99.90
9915;DHT22;4996;48.746;9.174;2022-07-06T03:49:30;17.70;99.90
9915;DHT22;4996;48.746;9.174;2022-07-06T03:51:55;17.80;99.90
9915;DHT22;4996;48.746;9.174;2022-07-06T03:54:21;17.90;99.90
9915;DHT22;4996;48.746;9.174;2022-07-06T03:56:47;17.70;99.90
9915;DHT22;4996;48.746;9.174;2022-07-06T03:59:12;17.60;99.90
9915;DHT22;4996;48.746;9.174;2022-07-06T04:01:39;17.70;99.90
9915;DHT22;4996;48.746;9.174;2022-07-06T04:04:05;17.70;99.90
9915;DHT22;4996;48.746;9.174;2022-07-06T04:06:31;17.50;99.90
9915;DHT22;4996;48.746;9.174;2022-07-06T04:08:56;17.60;99.90
9915;DHT22;4996;48.746;9.174;2022-07-06T04:11:22;17.50;99.90
9915;DHT22;4996;48.746;9.174;2022-07-06T04:13:47;17.50;99.90
9915;DHT22;4996;48.746;9.174;2022-07-06T04:16:13;17.50;99.90
9915;DHT22;4996;48.746;9.174;2022-07-06T04:18:38;17.50;99.90
9915;DHT22;4996;48.746;9.174;2022-07-06T04:21:04;17.50;99.90
9915;DHT22;4996;48.746;9.174;2022-07-06T04:23:30;17.40;99.90
9915;DHT22;4996;48.746;9.174;2022-07-06T04:25:55;17.40;99.90
9915;DHT22;4996;48.746;9.174;2022-07-06T04:28:21;17.30;99.90
9915;DHT22;4996;48.746;9.174;2022-07-06T04:30:46;17.40;99.90
9915;DHT22;4996;48.746;9.174;2022-07-06T04:33:12;17.40;99.90
9915;DHT22;4996;48.746;9.174;2022-07-06T04:35:38;17.20;99.90
9915;DHT22;4996;48.746;9.174;2022-07-06T04:38:03;17.20;99.90
9915;DHT22;4996;48.746;9.174;2022-07-06T04:40:30;17.00;99.90
9915;DHT22;4996;48.746;9.174;2022-07-06T04:42:56;17.00;99.90
9915;DHT22;4996;48.746;9.174;2022-07-06T04:45:21;16.90;99.90
9915;DHT22;4996;48.746;9.174;2022-07-06T04:47:47;17.10;99.90
9915;DHT22;4996;48.746;9.174;2022-07-06T04:50:13;17.20;99.90
9915;DHT22;4996;48.746;9.174;2022-07-06T04:52:38;17.10;99.90
9915;DHT22;4996;48.746;9.174;2022-07-06T04:55:04;17.10;99.90
9915;DHT22;4996;48.746;9.174;2022-07-06T04:57:31;16.90;99.90
9915;DHT22;4996;48.746;9.174;2022-07-06T04:59:57;16.90;99.90
9915;DHT22;4996;48.746;9.174;2022-07-06T05:02:22;17.00;99.90
9915;DHT22;4996;48.746;9.174;2022-07-06T05:04:48;17.10;99.90
9915;DHT22;4996;48.746;9.174;2022-07-06T05:07:14;16.90;99.90
9915;DHT22;4996;48.746;9.174;2022-07-06T05:09:40;17.00;99.90
9915;DHT22;4996;48.746;9.174;2022-07-06T05:12:06;17.00;99.90
9915;DHT22;4996;48.746;9.174;2022-07-06T05:14:31;16.80;99.90
9915;DHT22;4996;48.746;9.174;2022-07-06T05:16:57;16.90;99.90
9915;DHT22;4996;48.746;9.174;2022-07-06T05:19:22;16.80;99.90
9915;DHT22;4996;48.746;9.174;2022-07-06T05:21:48;16.90;99.90
9915;DHT22;4996;48.746;9.174;2022-07-06T05:24:13;16.80;99.90
9915;DHT22;4996;48.746;9.174;2022-07-06T05:26:41;16.90;99.90
9915;DHT22;4996;48.746;9.174;2022-07-06T05:29:06;16.90;99.90
9915;DHT22;4996;48.746;9.174;2022-07-06T05:31:32;17.00;99.90
9915;DHT22;4996;48.746;9.174;2022-07-06T05:33:57;17.00;99.90
9915;DHT22;4996;48.746;9.174;2022-07-06T05:36:23;17.10;99.90
9915;DHT22;4996;48.746;9.174;2022-07-06T05:38:48;17.00;99.90
9915;DHT22;4996;48.746;9.174;2022-07-06T05:41:14;17.10;99.90
9915;DHT22;4996;48.746;9.174;2022-07-06T05:43:39;17.10;99.90
9915;DHT22;4996;48.746;9.174;2022-07-06T05:46:05;17.20;99.90
9915;DHT22;4996;48.746;9.174;2022-07-06T05:48:30;17.30;99.90
9915;DHT22;4996;48.746;9.174;2022-07-06T05:51:15;17.40;99.90
9915;DHT22;4996;48.746;9.174;2022-07-06T05:53:40;17.30;99.90
9915;DHT22;4996;48.746;9.174;2022-07-06T05:56:06;17.40;99.90
9915;DHT22;4996;48.746;9.174;2022-07-06T05:58:31;17.40;99.90
9915;DHT22;4996;48.746;9.174;2022-07-06T06:00:57;17.50;99.90
9915;DHT22;4996;48.746;9.174;2022-07-06T06:03:23;17.70;99.90
9915;DHT22;4996;48.746;9.174;2022-07-06T06:05:49;17.70;99.90
9915;DHT22;4996;48.746;9.174;2022-07-06T06:08:15;17.60;99.90
9915;DHT22;4996;48.746;9.174;2022-07-06T06:10:40;17.50;99.90
9915;DHT22;4996;48.746;9.174;2022-07-06T06:13:06;17.70;99.90
9915;DHT22;4996;48.746;9.174;2022-07-06T06:15:31;17.90;99.90
9915;DHT22;4996;48.746;9.174;2022-07-06T06:17:57;17.90;99.90
9915;DHT22;4996;48.746;9.174;2022-07-06T06:20:23;18.00;99.90
9915;DHT22;4996;48.746;9.174;2022-07-06T06:22:56;18.00;99.90
9915;DHT22;4996;48.746;9.174;2022-07-06T06:25:33;18.20;99.90
9915;DHT22;4996;48.746;9.174;2022-07-06T06:28:00;18.20;99.90
9915;DHT22;4996;48.746;9.174;2022-07-06T06:30:26;18.40;99.90
9915;DHT22;4996;48.746;9.174;2022-07-06T06:33:07;18.40;99.90
9915;DHT22;4996;48.746;9.174;2022-07-06T06:35:33;18.70;99.90
9915;DHT22;4996;48.746;9.174;2022-07-06T06:37:59;18.80;99.90
9915;DHT22;4996;48.746;9.174;2022-07-06T06:40:24;18.90;99.90
9915;DHT22;4996;48.746;9.174;2022-07-06T06:42:50;18.70;99.90
9915;DHT22;4996;48.746;9.174;2022-07-06T06:45:15;18.90;99.90
9915;DHT22;4996;48.746;9.174;2022-07-06T06:47:41;19.00;99.90
9915;DHT22;4996;48.746;9.174;2022-07-06T06:50:06;19.10;99.90
9915;DHT22;4996;48.746;9.174;2022-07-06T06:52:32;19.10;99.90
9915;DHT22;4996;48.746;9.174;2022-07-06T06:54:58;19.20;99.90
9915;DHT22;4996;48.746;9.174;2022-07-06T06:57:23;19.10;99.90
9915;DHT22;4996;48.746;9.174;2022-07-06T06:59:49;19.20;99.90
9915;DHT22;4996;48.746;9.174;2022-07-06T07:02:14;19.10;99.90
9915;DHT22;4996;48.746;9.174;2022-07-06T07:04:40;19.00;99.90
9915;DHT22;4996;48.746;9.174;2022-07-06T07:07:05;19.00;99.90
9915;DHT22;4996;48.746;9.174;2022-07-06T07:09:31;19.20;99.90
9915;DHT22;4996;48.746;9.174;2022-07-06T07:11:56;19.30;99.90
9915;DHT22;4996;48.746;9.174;2022-07-06T07:14:23;19.40;99.90
9915;DHT22;4996;48.746;9.174;2022-07-06T07:16:48;19.50;99.90
9915;DHT22;4996;48.746;9.174;2022-07-06T07:19:14;19.60;99.90
9915;DHT22;4996;48.746;9.174;2022-07-06T07:21:39;19.70;99.90
9915;DHT22;4996;48.746;9.174;2022-07-06T07:24:05;19.70;99.90
9915;DHT22;4996;48.746;9.174;2022-07-06T07:26:32;19.50;99.90
9915;DHT22;4996;48.746;9.174;2022-07-06T07:28:58;19.60;99.90
9915;DHT22;4996;48.746;9.174;2022-07-06T07:31:23;19.60;99.90
9915;DHT22;4996;48.746;9.174;2022-07-06T07:33:49;19.80;99.90
9915;DHT22;4996;48.746;9.174;2022-07-06T07:36:15;19.90;99.90
9915;DHT22;4996;48.746;9.174;2022-07-06T07:38:40;20.00;99.90
9915;DHT22;4996;48.746;9.174;2022-07-06T07:41:06;20.10;99.90
9915;DHT22;4996;48.746;9.174;2022-07-06T07:43:31;20.20;99.90
9915;DHT22;4996;48.746;9.174;2022-07-06T07:45:57;20.20;99.90
9915;DHT22;4996;48.746;9.174;2022-07-06T07:48:23;20.30;99.90
9915;DHT22;4996;48.746;9.174;2022-07-06T07:50:48;20.50;99.90
9915;DHT22;4996;48.746;9.174;2022-07-06T07:53:14;20.60;99.90
9915;DHT22;4996;48.746;9.174;2022-07-06T07:55:39;20.90;99.90
9915;DHT22;4996;48.746;9.174;2022-07-06T07:58:05;21.10;99.90
9915;DHT22;4996;48.746;9.174;2022-07-06T08:00:31;21.30;99.90
9915;DHT22;4996;48.746;9.174;2022-07-06T08:02:56;21.50;99.90
9915;DHT22;4996;48.746;9.174;2022-07-06T08:05:22;21.70;99.90
9915;DHT22;4996;48.746;9.174;2022-07-06T08:07:48;21.70;99.90
9915;DHT22;4996;48.746;9.174;2022-07-06T08:10:13;21.90;99.90
9915;DHT22;4996;48.746;9.174;2022-07-06T08:12:39;22.10;99.90
9915;DHT22;4996;48.746;9.174;2022-07-06T08:15:05;22.00;99.90
9915;DHT22;4996;48.746;9.174;2022-07-06T08:17:31;22.00;99.90
9915;DHT22;4996;48.746;9.174;2022-07-06T08:19:57;22.30;99.90
9915;DHT22;4996;48.746;9.174;2022-07-06T08:22:22;22.30;99.90
9915;DHT22;4996;48.746;9.174;2022-07-06T08:24:48;22.20;99.90
9915;DHT22;4996;48.746;9.174;2022-07-06T08:27:13;22.40;99.90
9915;DHT22;4996;48.746;9.174;2022-07-06T08:29:39;22.70;99.90
9915;DHT22;4996;48.746;9.174;2022-07-06T08:32:05;22.70;99.90
9915;DHT22;4996;48.746;9.174;2022-07-06T08:34:30;22.40;99.90
9915;DHT22;4996;48.746;9.174;2022-07-06T08:36:57;22.70;99.90
9915;DHT22;4996;48.746;9.174;2022-07-06T08:39:25;23.20;99.90
9915;DHT22;4996;48.746;9.174;2022-07-06T08:41:51;23.10;99.90
9915;DHT22;4996;48.746;9.174;2022-07-06T08:44:17;23.20;99.90
9915;DHT22;4996;48.746;9.174;2022-07-06T08:46:43;23.60;99.90
9915;DHT22;4996;48.746;9.174;2022-07-06T08:49:15;23.70;99.90
9915;DHT22;4996;48.746;9.174;2022-07-06T08:51:41;23.90;99.90
9915;DHT22;4996;48.746;9.174;2022-07-06T08:54:07;23.80;99.90
9915;DHT22;4996;48.746;9.174;2022-07-06T08:56:33;23.40;99.90
9915;DHT22;4996;48.746;9.174;2022-07-06T08:58:59;23.50;99.90
9915;DHT22;4996;48.746;9.174;2022-07-06T09:01:25;23.30;99.90
9915;DHT22;4996;48.746;9.174;2022-07-06T09:03:52;23.40;99.90
9915;DHT22;4996;48.746;9.174;2022-07-06T09:06:24;23.20;99.90
9915;DHT22;4996;48.746;9.174;2022-07-06T09:08:54;23.70;99.90
9915;DHT22;4996;48.746;9.174;2022-07-06T09:11:22;23.70;99.90
9915;DHT22;4996;48.746;9.174;2022-07-06T09:13:47;23.90;99.90
9915;DHT22;4996;48.746;9.174;2022-07-06T09:16:15;24.20;99.90
9915;DHT22;4996;48.746;9.174;2022-07-06T09:18:44;24.30;99.90
9915;DHT22;4996;48.746;9.174;2022-07-06T09:21:10;24.30;99.90
9915;DHT22;4996;48.746;9.174;2022-07-06T09:23:37;24.50;99.90
9915;DHT22;4996;48.746;9.174;2022-07-06T09:26:05;24.70;99.90
9915;DHT22;4996;48.746;9.174;2022-07-06T09:28:44;24.70;99.90
9915;DHT22;4996;48.746;9.174;2022-07-06T09:31:10;25.10;99.90
9915;DHT22;4996;48.746;9.174;2022-07-06T09:33:37;24.40;99.90
9915;DHT22;4996;48.746;9.174;2022-07-06T09:36:03;24.40;99.90
9915;DHT22;4996;48.746;9.174;2022-07-06T09:38:29;24.40;99.90
9915;DHT22;4996;48.746;9.174;2022-07-06T09:40:54;24.60;99.90
9915;DHT22;4996;48.746;9.174;2022-07-06T09:43:24;24.60;99.90
9915;DHT22;4996;48.746;9.174;2022-07-06T09:45:53;24.40;99.90
9915;DHT22;4996;48.746;9.174;2022-07-06T09:48:21;24.90;99.90
9915;DHT22;4996;48.746;9.174;2022-07-06T09:51:07;25.00;99.90
9915;DHT22;4996;48.746;9.174;2022-07-06T09:53:35;25.00;99.90
9915;DHT22;4996;48.746;9.174;2022-07-06T09:56:01;24.70;99.90
9915;DHT22;4996;48.746;9.174;2022-07-06T09:58:27;24.30;99.90
9915;DHT22;4996;48.746;9.174;2022-07-06T10:00:53;24.30;99.90
9915;DHT22;4996;48.746;9.174;2022-07-06T10:03:19;24.20;99.90
9915;DHT22;4996;48.746;9.174;2022-07-06T10:05:46;24.30;99.90
9915;DHT22;4996;48.746;9.174;2022-07-06T10:08:13;23.90;99.90
9915;DHT22;4996;48.746;9.174;2022-07-06T10:10:40;24.00;99.90
9915;DHT22;4996;48.746;9.174;2022-07-06T10:13:07;24.30;99.90
9915;DHT22;4996;48.746;9.174;2022-07-06T10:15:34;24.70;99.90
9915;DHT22;4996;48.746;9.174;2022-07-06T10:18:03;25.00;99.90
9915;DHT22;4996;48.746;9.174;2022-07-06T10:20:32;25.10;99.90
9915;DHT22;4996;48.746;9.174;2022-07-06T10:23:00;25.10;99.90
9915;DHT22;4996;48.746;9.174;2022-07-06T10:25:27;24.80;99.90
9915;DHT22;4996;48.746;9.174;2022-07-06T10:27:53;24.80;99.90
9915;DHT22;4996;48.746;9.174;2022-07-06T10:30:18;24.60;99.90
9915;DHT22;4996;48.746;9.174;2022-07-06T10:32:46;24.40;99.90
9915;DHT22;4996;48.746;9.174;2022-07-06T10:35:14;24.30;99.90
9915;DHT22;4996;48.746;9.174;2022-07-06T10:37:40;24.60;99.90
9915;DHT22;4996;48.746;9.174;2022-07-06T10:40:06;24.60;99.90
9915;DHT22;4996;48.746;9.174;2022-07-06T10:43:01;24.30;99.90
9915;DHT22;4996;48.746;9.174;2022-07-06T10:50:40;24.10;99.90
9915;DHT22;4996;48.746;9.174;2022-07-06T10:53:13;24.10;99.90
9915;DHT22;4996;48.746;9.174;2022-07-06T10:55:41;24.50;99.90
9915;DHT22;4996;48.746;9.174;2022-07-06T10:58:08;24.10;99.90
9915;DHT22;4996;48.746;9.174;2022-07-06T11:00:53;24.60;99.90
9915;DHT22;4996;48.746;9.174;2022-07-06T11:03:39;24.40;99.90
9915;DHT22;4996;48.746;9.174;2022-07-06T11:08:49;23.70;99.90
9915;DHT22;4996;48.746;9.174;2022-07-06T11:11:21;23.80;99.90
9915;DHT22;4996;48.746;9.174;2022-07-06T11:13:57;24.10;99.90
9915;DHT22;4996;48.746;9.174;2022-07-06T11:16:26;23.90;99.90
9915;DHT22;4996;48.746;9.174;2022-07-06T11:19:04;24.10;99.90
9915;DHT22;4996;48.746;9.174;2022-07-06T11:21:36;24.30;99.90
9915;DHT22;4996;48.746;9.174;2022-07-06T11:24:03;24.30;99.90
9915;DHT22;4996;48.746;9.174;2022-07-06T11:26:30;24.40;99.90
9915;DHT22;4996;48.746;9.174;2022-07-06T11:28:56;25.10;99.90
9915;DHT22;4996;48.746;9.174;2022-07-06T11:31:23;25.60;99.90
9915;DHT22;4996;48.746;9.174;2022-07-06T11:33:49;25.90;99.90
9915;DHT22;4996;48.746;9.174;2022-07-06T11:36:21;26.10;99.80
9915;DHT22;4996;48.746;9.174;2022-07-06T11:38:49;26.50;99.70
9915;DHT22;4996;48.746;9.174;2022-07-06T11:41:17;26.30;98.90
9915;DHT22;4996;48.746;9.174;2022-07-06T11:43:43;26.20;99.30
9915;DHT22;4996;48.746;9.174;2022-07-06T11:48:53;25.40;99.90
9915;DHT22;4996;48.746;9.174;2022-07-06T11:51:20;25.10;99.90
9915;DHT22;4996;48.746;9.174;2022-07-06T11:53:47;25.00;99.90
9915;DHT22;4996;48.746;9.174;2022-07-06T11:56:15;25.30;99.90
9915;DHT22;4996;48.746;9.174;2022-07-06T11:58:41;25.70;99.90
9915;DHT22;4996;48.746;9.174;2022-07-06T12:01:10;26.20;99.60
9915;DHT22;4996;48.746;9.174;2022-07-06T12:03:36;26.70;99.30
9915;DHT22;4996;48.746;9.174;2022-07-06T12:06:06;27.10;98.80
9915;DHT22;4996;48.746;9.174;2022-07-06T12:08:40;27.00;98.10
9915;DHT22;4996;48.746;9.174;2022-07-06T12:11:06;26.40;98.10
9915;DHT22;4996;48.746;9.174;2022-07-06T12:13:39;27.10;97.90
9915;DHT22;4996;48.746;9.174;2022-07-06T12:16:12;28.00;96.30
9915;DHT22;4996;48.746;9.174;2022-07-06T12:18:40;28.40;96.00
9915;DHT22;4996;48.746;9.174;2022-07-06T12:21:15;28.20;95.60
9915;DHT22;4996;48.746;9.174;2022-07-06T12:23:48;28.10;95.60
9915;DHT22;4996;48.746;9.174;2022-07-06T12:26:15;28.80;94.70
9915;DHT22;4996;48.746;9.174;2022-07-06T12:28:42;28.90;93.80
9915;DHT22;4996;48.746;9.174;2022-07-06T12:31:08;29.00;94.00
9915;DHT22;4996;48.746;9.174;2022-07-06T12:33:34;28.60;93.60
9915;DHT22;4996;48.746;9.174;2022-07-06T12:36:10;29.00;93.50
9915;DHT22;4996;48.746;9.174;2022-07-06T12:38:46;28.30;93.30
9915;DHT22;4996;48.746;9.174;2022-07-06T12:41:28;27.50;94.20
9915;DHT22;4996;48.746;9.174;2022-07-06T12:44:06;26.60;94.80
9915;DHT22;4996;48.746;9.174;2022-07-06T12:46:37;26.40;95.40
9915;DHT22;4996;48.746;9.174;2022-07-06T12:49:19;26.10;95.70
9915;DHT22;4996;48.746;9.174;2022-07-06T12:51:50;25.70;95.80
9915;DHT22;4996;48.746;9.174;2022-07-06T12:54:16;25.00;96.60
9915;DHT22;4996;48.746;9.174;2022-07-06T12:59:27;24.70;97.00
9915;DHT22;4996;48.746;9.174;2022-07-06T13:01:53;24.20;97.60
9915;DHT22;4996;48.746;9.174;2022-07-06T13:04:26;23.90;98.00
9915;DHT22;4996;48.746;9.174;2022-07-06T13:06:52;24.10;98.00
9915;DHT22;4996;48.746;9.174;2022-07-06T13:09:18;24.10;98.20
9915;DHT22;4996;48.746;9.174;2022-07-06T13:11:45;24.30;98.60
9915;DHT22;4996;48.746;9.174;2022-07-06T13:14:11;24.90;98.10
9915;DHT22;4996;48.746;9.174;2022-07-06T13:16:36;25.50;97.30
9915;DHT22;4996;48.746;9.174;2022-07-06T13:19:02;25.80;96.20
9915;DHT22;4996;48.746;9.174;2022-07-06T13:21:28;26.10;96.10
9915;DHT22;4996;48.746;9.174;2022-07-06T13:23:53;25.70;96.20
9915;DHT22;4996;48.746;9.174;2022-07-06T13:26:19;25.70;96.10
9915;DHT22;4996;48.746;9.174;2022-07-06T13:28:45;25.60;96.20
9915;DHT22;4996;48.746;9.174;2022-07-06T13:31:11;25.10;96.30
9915;DHT22;4996;48.746;9.174;2022-07-06T13:33:37;25.00;96.50
9915;DHT22;4996;48.746;9.174;2022-07-06T13:36:02;25.30;96.50
9915;DHT22;4996;48.746;9.174;2022-07-06T13:38:28;25.60;96.20
9915;DHT22;4996;48.746;9.174;2022-07-06T13:40:54;25.70;96.10
9915;DHT22;4996;48.746;9.174;2022-07-06T13:43:19;25.20;96.10
9915;DHT22;4996;48.746;9.174;2022-07-06T13:45:48;25.30;96.30
9915;DHT22;4996;48.746;9.174;2022-07-06T13:48:13;25.60;95.90
9915;DHT22;4996;48.746;9.174;2022-07-06T13:50:39;26.20;95.40
9915;DHT22;4996;48.746;9.174;2022-07-06T13:53:05;26.70;95.30
9915;DHT22;4996;48.746;9.174;2022-07-06T13:55:32;26.60;94.70
9915;DHT22;4996;48.746;9.174;2022-07-06T13:57:58;25.90;94.90
9915;DHT22;4996;48.746;9.174;2022-07-06T14:00:24;25.60;95.30
9915;DHT22;4996;48.746;9.174;2022-07-06T14:02:50;25.70;94.80
9915;DHT22;4996;48.746;9.174;2022-07-06T14:05:15;25.30;95.20
9915;DHT22;4996;48.746;9.174;2022-07-06T14:07:41;25.30;95.00
9915;DHT22;4996;48.746;9.174;2022-07-06T14:10:07;25.30;95.70
9915;DHT22;4996;48.746;9.174;2022-07-06T14:12:33;25.20;95.20
9915;DHT22;4996;48.746;9.174;2022-07-06T14:14:58;25.20;95.60
9915;DHT22;4996;48.746;9.174;2022-07-06T14:17:25;24.90;95.50
9915;DHT22;4996;48.746;9.174;2022-07-06T14:19:51;24.20;96.00
9915;DHT22;4996;48.746;9.174;2022-07-06T14:22:16;24.40;96.20
9915;DHT22;4996;48.746;9.174;2022-07-06T14:24:42;24.70;95.80
9915;DHT22;4996;48.746;9.174;2022-07-06T14:27:07;24.30;95.80
9915;DHT22;4996;48.746;9.174;2022-07-06T14:29:33;24.30;96.00
9915;DHT22;4996;48.746;9.174;2022-07-06T14:31:58;24.20;96.10
9915;DHT22;4996;48.746;9.174;2022-07-06T14:34:24;24.20;96.20
9915;DHT22;4996;48.746;9.174;2022-07-06T14:36:50;24.30;95.70
9915;DHT22;4996;48.746;9.174;2022-07-06T14:39:16;24.40;96.10
9915;DHT22;4996;48.746;9.174;2022-07-06T14:41:42;24.20;96.10
9915;DHT22;4996;48.746;9.174;2022-07-06T14:44:07;24.10;96.10
9915;DHT22;4996;48.746;9.174;2022-07-06T14:46:33;23.80;96.20
9915;DHT22;4996;48.746;9.174;2022-07-06T14:49:00;23.50;96.70
9915;DHT22;4996;48.746;9.174;2022-07-06T14:51:25;23.50;96.40
9915;DHT22;4996;48.746;9.174;2022-07-06T14:53:51;23.70;96.70
9915;DHT22;4996;48.746;9.174;2022-07-06T14:56:16;23.80;96.50
9915;DHT22;4996;48.746;9.174;2022-07-06T14:58:42;23.90;96.30
9915;DHT22;4996;48.746;9.174;2022-07-06T15:01:07;23.90;96.50
9915;DHT22;4996;48.746;9.174;2022-07-06T15:06:55;23.60;96.50
9915;DHT22;4996;48.746;9.174;2022-07-06T15:09:21;23.50;96.80
9915;DHT22;4996;48.746;9.174;2022-07-06T15:11:47;23.70;96.40
9915;DHT22;4996;48.746;9.174;2022-07-06T15:14:14;24.00;96.50
9915;DHT22;4996;48.746;9.174;2022-07-06T15:16:42;23.60;96.40
9915;DHT22;4996;48.746;9.174;2022-07-06T15:19:09;23.30;96.40
9915;DHT22;4996;48.746;9.174;2022-07-06T15:21:35;23.40;96.20
9915;DHT22;4996;48.746;9.174;2022-07-06T15:24:00;23.50;96.20
9915;DHT22;4996;48.746;9.174;2022-07-06T15:26:26;23.60;96.40
9915;DHT22;4996;48.746;9.174;2022-07-06T15:28:51;23.30;96.10
9915;DHT22;4996;48.746;9.174;2022-07-06T15:31:17;23.30;96.10
9915;DHT22;4996;48.746;9.174;2022-07-06T15:33:42;23.60;96.30
9915;DHT22;4996;48.746;9.174;2022-07-06T15:36:08;23.60;95.80
9915;DHT22;4996;48.746;9.174;2022-07-06T15:38:34;23.60;95.50
9915;DHT22;4996;48.746;9.174;2022-07-06T15:41:02;23.50;95.10
9915;DHT22;4996;48.746;9.174;2022-07-06T15:43:31;23.40;95.80
9915;DHT22;4996;48.746;9.174;2022-07-06T15:46:00;23.50;95.80
9915;DHT22;4996;48.746;9.174;2022-07-06T15:48:27;23.40;95.70
9915;DHT22;4996;48.746;9.174;2022-07-06T15:50:53;23.40;95.50
9915;DHT22;4996;48.746;9.174;2022-07-06T15:53:19;23.70;96.10
9915;DHT22;4996;48.746;9.174;2022-07-06T15:55:45;23.90;95.20
9915;DHT22;4996;48.746;9.174;2022-07-06T15:58:11;23.80;95.20
9915;DHT22;4996;48.746;9.174;2022-07-06T16:00:37;23.80;95.20
9915;DHT22;4996;48.746;9.174;2022-07-06T16:03:03;23.90;94.80
9915;DHT22;4996;48.746;9.174;2022-07-06T16:05:29;23.70;95.10
9915;DHT22;4996;48.746;9.174;2022-07-06T16:07:54;23.80;95.10
9915;DHT22;4996;48.746;9.174;2022-07-06T16:10:20;23.60;95.00
9915;DHT22;4996;48.746;9.174;2022-07-06T16:12:46;23.30;95.10
9915;DHT22;4996;48.746;9.174;2022-07-06T16:15:11;23.10;95.10
9915;DHT22;4996;48.746;9.174;2022-07-06T16:17:37;23.20;95.10